Airfield :
LOGIN :

Register | Disclaimer

   EN    FR    IT 

 










Legend :    VFR   Marginal VFR   IFR   Intensive IFR   Very Intensive IFR
Visi :
Ceiling :
>= 8 km
>= 3000ft
5 to 8 km
1000 to 3000 ft
1500m to 5 km
500 to 1000 ft
800 to 1500m
200 to 500 ft
< 800m
< 200 ft
Symbols :   Thunderstorms  Fog  Heavy snow  Heavy precipitations  Wind > 20 kt
SIGMETs :     Misc.  Thunderstorms  Icing  Turbulence  Mountain Waves  Volcanic Ashes







- Airport Elevation : 512 ft
- IATA code : URO
- Download approach charts


LFOP - Rouen Vallée de Seine

CURRENT METAR :
  • 201730Z AUTO 33008KT 300V360 9999 SCT039 OVC046 24/17 Q1021 NOSIG

EXPIRED METARs :
  • 201700Z AUTO 33007KT 300V360 9999 FEW033 BKN050 24/16 Q1021 NOSIG
  • 201630Z AUTO 31007KT 270V350 9999 BKN035 BKN045 BKN052 25/17 Q1021 NOSIG
  • 201600Z AUTO 31007KT 260V350 9999 BKN034 BKN042 25/17 Q1021 NOSIG
  • 201530Z AUTO 31009KT 270V340 9999 OVC034 24/16 Q1021 NOSIG
  • 201500Z AUTO 32009KT 290V360 9999 OVC035 25/17 Q1021 NOSIG

TAF TAF LFOP
Valid from the 20 at 18:00 until the 21 at 18:00 UTC


201700Z 2018/2118 31007KT 9999 BKN025
BECMG 2100/2103 OVC006
TEMPO 2103/2107 OVC002
BECMG 2108/2110 OVC012
BECMG 2110/2112 BKN020
ATIS : +33 2 35 80 80 34
Met : +33 2 32 86 52 80
No reported NOTAMs for that airfield.



MET'MAP, your aeronautical weather chart ! - Copyright ORBIFLY December 2007 - Disclaimer

ORBIFLY MET'MAP TEAM :

Programming & Development : Alexandra Zaïnal
Concept & Development : Baudouin d'Aumeries
Co-Development & Prog : Marc-Olivier Méhu
Technical & hardware support : Manuel Goepfert

Contact : metmap@orbifly.com




SOURCES & CREDITS :

   NOAA